createdAt,value
2019-05-06T00:00:34.106Z,74.50
2019-05-06T00:01:34.023Z,74.40
2019-05-06T00:02:34.094Z,74.50
2019-05-06T00:03:34.386Z,74.60
2019-05-06T00:04:34.107Z,74.60
2019-05-06T00:05:34.130Z,74.60
2019-05-06T00:06:34.550Z,74.71
2019-05-06T00:07:34.212Z,74.63
2019-05-06T00:08:34.543Z,74.84
2019-05-06T00:09:34.875Z,74.95
2019-05-06T00:10:34.145Z,75.05
2019-05-06T00:11:34.661Z,74.95
2019-05-06T00:12:33.620Z,74.95
2019-05-06T00:13:34.331Z,74.95
2019-05-06T00:14:33.982Z,75.29
2019-05-06T00:15:34.266Z,75.71
2019-05-06T00:16:34.677Z,76.12
2019-05-06T00:17:34.919Z,76.23
2019-05-06T00:18:34.208Z,76.09
2019-05-06T00:19:34.163Z,75.98
2019-05-06T00:20:34.797Z,75.98
2019-05-06T00:21:35.266Z,75.57
2019-05-06T00:22:34.341Z,75.57
2019-05-06T00:23:35.321Z,75.78
2019-05-06T00:24:34.782Z,75.78
2019-05-06T00:25:34.852Z,75.53
2019-05-06T00:26:34.007Z,75.02
2019-05-06T00:27:34.207Z,74.71
2019-05-06T00:28:33.959Z,74.60
2019-05-06T00:29:34.922Z,74.60
2019-05-06T00:30:34.555Z,74.60
2019-05-06T00:31:34.574Z,74.60
2019-05-06T00:32:34.826Z,74.40
2019-05-06T00:33:34.141Z,74.29
2019-05-06T00:34:34.114Z,74.74
2019-05-06T00:35:34.290Z,74.95
2019-05-06T00:36:34.455Z,74.84
2019-05-06T00:37:34.878Z,75.26
2019-05-06T00:38:34.076Z,75.50
2019-05-06T00:39:33.633Z,75.92
2019-05-06T00:40:34.012Z,76.43
2019-05-06T00:41:36.274Z,76.23
2019-05-06T00:42:34.716Z,76.02
2019-05-06T00:43:34.515Z,76.02
2019-05-06T00:44:34.640Z,76.02
2019-05-06T00:45:34.156Z,75.71
2019-05-06T00:46:34.443Z,75.29
2019-05-06T00:47:33.989Z,75.29
2019-05-06T00:48:34.173Z,75.40
2019-05-06T00:49:34.474Z,75.74
2019-05-06T00:50:34.713Z,75.95
2019-05-06T00:51:33.888Z,76.15
2019-05-06T00:52:33.991Z,76.05
2019-05-06T00:53:34.751Z,76.19
2019-05-06T00:54:34.108Z,76.40
2019-05-06T00:55:33.766Z,76.40
2019-05-06T00:56:33.967Z,76.81
2019-05-06T00:57:34.014Z,76.71
2019-05-06T00:58:34.795Z,76.71
2019-05-06T00:59:34.553Z,76.71
2019-05-06T01:00:33.763Z,76.50
2019-05-06T01:01:34.474Z,76.81
2019-05-06T01:02:34.233Z,76.71
2019-05-06T01:03:34.760Z,76.50
2019-05-06T01:04:33.896Z,76.40
2019-05-06T01:05:33.804Z,76.29
2019-05-06T01:06:34.432Z,76.29
2019-05-06T01:07:34.492Z,76.50
2019-05-06T01:08:34.898Z,76.26
2019-05-06T01:09:34.354Z,76.26
2019-05-06T01:10:34.345Z,76.26
2019-05-06T01:11:34.611Z,75.92
2019-05-06T01:12:34.564Z,75.50
2019-05-06T01:13:34.960Z,74.98
2019-05-06T01:14:32.611Z,74.95
2019-05-06T01:15:34.361Z,74.43
2019-05-06T01:16:34.474Z,74.22
2019-05-06T01:17:33.906Z,74.02
2019-05-06T01:18:34.040Z,73.91
2019-05-06T01:19:34.215Z,73.91
2019-05-06T01:20:33.934Z,74.26
2019-05-06T01:21:34.249Z,74.84
2019-05-06T01:22:34.193Z,74.74
2019-05-06T01:23:34.225Z,74.53
2019-05-06T01:24:34.357Z,74.63
2019-05-06T01:25:34.469Z,74.32
2019-05-06T01:26:33.795Z,74.46
2019-05-06T01:27:33.745Z,74.57
2019-05-06T01:28:34.118Z,74.77
2019-05-06T01:29:34.643Z,75.32
2019-05-06T01:30:33.707Z,75.43
2019-05-06T01:31:40.560Z,75.29
2019-05-06T01:32:34.547Z,75.32
2019-05-06T01:33:32.482Z,75.32
2019-05-06T01:34:33.961Z,75.32
2019-05-06T01:35:32.395Z,75.63
2019-05-06T01:36:34.379Z,75.78
2019-05-06T01:37:34.582Z,75.98
2019-05-06T01:38:34.011Z,76.29
2019-05-06T01:39:34.138Z,76.50
2019-05-06T01:40:34.489Z,76.40
2019-05-06T01:41:33.848Z,76.64
2019-05-06T01:42:34.302Z,76.75
2019-05-06T01:43:34.540Z,77.47
2019-05-06T01:44:33.937Z,77.37
2019-05-06T01:45:32.286Z,77.06
2019-05-06T01:46:33.991Z,77.06
2019-05-06T01:47:34.428Z,77.16
2019-05-06T01:48:33.638Z,77.16
2019-05-06T01:49:34.056Z,77.72
2019-05-06T01:50:34.421Z,77.72
2019-05-06T01:51:34.599Z,77.72
2019-05-06T01:52:34.343Z,77.72
2019-05-06T01:53:33.878Z,77.92
2019-05-06T01:54:34.157Z,78.03
2019-05-06T01:55:34.206Z,77.82
2019-05-06T01:56:33.652Z,77.72
2019-05-06T01:57:33.768Z,77.72
2019-05-06T01:58:33.563Z,77.82
2019-05-06T01:59:34.065Z,78.13
2019-05-06T02:01:59.915Z,78.34
2019-05-06T02:02:48.855Z,78.23
2019-05-06T02:03:48.766Z,77.78
2019-05-06T02:04:47.843Z,77.30
2019-05-06T02:05:47.834Z,77.61
2019-05-06T02:06:47.824Z,78.03
2019-05-06T02:07:47.833Z,78.03
2019-05-06T02:08:47.803Z,78.13
2019-05-06T02:09:47.783Z,78.41
2019-05-06T02:10:48.090Z,78.20
2019-05-06T02:11:48.337Z,78.09
2019-05-06T02:12:47.752Z,78.20
2019-05-06T02:13:48.242Z,78.75
2019-05-06T02:14:47.733Z,79.30
2019-05-06T02:15:47.721Z,79.93
2019-05-06T02:16:47.710Z,80.66
2019-05-06T02:17:47.989Z,80.97
2019-05-06T02:18:47.691Z,81.07
2019-05-06T02:19:47.714Z,81.07
2019-05-06T02:20:47.676Z,80.52
2019-05-06T02:21:47.662Z,80.10
2019-05-06T02:22:47.651Z,79.75
2019-05-06T02:23:47.638Z,79.34
2019-05-06T02:24:47.921Z,79.13
2019-05-06T02:25:47.651Z,78.89
2019-05-06T02:26:47.608Z,78.47
2019-05-06T02:27:47.599Z,77.95
2019-05-06T02:28:47.595Z,77.75
2019-05-06T02:29:47.569Z,77.44
2019-05-06T02:30:47.568Z,77.23
2019-05-06T02:31:48.079Z,77.23
2019-05-06T02:32:47.546Z,77.33
2019-05-06T02:33:47.537Z,77.40
2019-05-06T02:34:47.539Z,77.29
2019-05-06T02:35:47.519Z,76.88
2019-05-06T02:36:47.528Z,76.46
2019-05-06T02:37:47.814Z,76.36
2019-05-06T02:38:51.418Z,76.57
2019-05-06T02:39:48.470Z,76.67
2019-05-06T02:40:47.458Z,76.98
2019-05-06T02:41:47.451Z,76.78
2019-05-06T02:42:47.453Z,76.78
2019-05-06T02:43:47.458Z,76.67
2019-05-06T02:44:47.727Z,76.57
2019-05-06T02:45:47.408Z,76.57
2019-05-06T02:46:47.398Z,76.32
2019-05-06T02:47:47.394Z,76.02
2019-05-06T02:48:47.379Z,75.81
2019-05-06T02:49:47.407Z,75.60
2019-05-06T02:50:47.346Z,75.40
2019-05-06T02:51:48.591Z,75.19
2019-05-06T02:52:47.336Z,75.84
2019-05-06T02:53:48.317Z,76.57
2019-05-06T02:54:47.314Z,76.36
2019-05-06T02:55:47.335Z,76.26
2019-05-06T02:56:47.296Z,76.46
2019-05-06T02:57:47.809Z,76.46
2019-05-06T02:58:47.565Z,76.36
2019-05-06T02:59:48.184Z,76.26
2019-05-06T03:00:47.811Z,76.46
2019-05-06T03:01:47.275Z,76.78
2019-05-06T03:02:48.543Z,76.98
2019-05-06T03:03:47.801Z,76.98
2019-05-06T03:04:47.203Z,77.02
2019-05-06T03:05:47.504Z,77.12
2019-05-06T03:06:48.550Z,77.33
2019-05-06T03:07:47.903Z,77.64
2019-05-06T03:08:47.169Z,77.64
2019-05-06T03:09:47.152Z,77.75
2019-05-06T03:10:47.150Z,77.71
2019-05-06T03:11:47.155Z,77.44
2019-05-06T03:12:47.425Z,77.75
2019-05-06T03:13:47.143Z,78.16
2019-05-06T03:14:47.116Z,78.61
2019-05-06T03:15:47.083Z,79.48
2019-05-06T03:16:47.693Z,80.35
2019-05-06T03:17:47.063Z,81.07
2019-05-06T03:18:47.061Z,81.59
2019-05-06T03:19:47.382Z,81.80
2019-05-06T03:20:47.042Z,81.90
2019-05-06T03:21:47.032Z,81.90
2019-05-06T03:22:47.699Z,82.01
2019-05-06T03:23:47.010Z,81.90
2019-05-06T03:24:47.690Z,81.90
2019-05-06T03:25:47.020Z,81.90
2019-05-06T03:26:47.290Z,81.76
2019-05-06T03:27:47.223Z,81.45
2019-05-06T03:28:46.960Z,81.20
2019-05-06T03:29:46.974Z,80.79
2019-05-06T03:30:46.930Z,80.79
2019-05-06T03:31:46.978Z,80.58
2019-05-06T03:33:18.701Z,80.37
2019-05-06T03:34:05.878Z,80.47
2019-05-06T03:35:08.884Z,80.47
2019-05-06T03:36:00.505Z,80.33
2019-05-06T03:36:49.036Z,80.02
2019-05-06T03:37:46.861Z,79.51
2019-05-06T03:38:46.850Z,79.16
2019-05-06T03:39:52.857Z,78.75
2019-05-06T03:40:46.829Z,78.44
2019-05-06T03:41:46.849Z,78.12
2019-05-06T03:42:47.537Z,78.23
2019-05-06T03:43:46.792Z,78.44
2019-05-06T03:44:46.789Z,78.44
2019-05-06T03:45:46.770Z,78.12
2019-05-06T03:46:46.757Z,78.02
2019-05-06T03:47:46.754Z,78.09
2019-05-06T03:48:46.782Z,77.88
2019-05-06T03:49:49.960Z,78.02
2019-05-06T03:50:46.726Z,78.58
2019-05-06T03:51:46.998Z,79.34
2019-05-06T03:52:46.701Z,79.96
2019-05-06T03:53:46.687Z,80.37
2019-05-06T03:54:46.715Z,80.58
2019-05-06T03:55:47.097Z,80.68
2019-05-06T03:56:46.654Z,80.44
2019-05-06T03:57:46.647Z,80.02
2019-05-06T03:58:46.635Z,79.88
2019-05-06T03:59:46.627Z,79.78
2019-05-06T04:00:46.655Z,79.37
2019-05-06T04:01:46.607Z,78.96
2019-05-06T04:02:46.601Z,78.81
2019-05-06T04:03:52.205Z,78.61
2019-05-06T04:04:47.573Z,78.30
2019-05-06T04:05:46.565Z,77.88
2019-05-06T04:06:46.586Z,77.98
2019-05-06T04:07:46.544Z,78.19
2019-05-06T04:08:46.533Z,78.85
2019-05-06T04:09:46.534Z,79.27
2019-05-06T04:10:46.803Z,79.92
2019-05-06T04:11:46.504Z,80.33
2019-05-06T04:12:46.540Z,80.44
2019-05-06T04:13:46.482Z,80.79
2019-05-06T04:14:46.462Z,81.20
2019-05-06T04:15:47.627Z,81.41
2019-05-06T04:16:46.441Z,81.51
2019-05-06T04:17:46.755Z,81.82
2019-05-06T04:18:46.491Z,81.58
2019-05-06T04:19:46.431Z,81.06
2019-05-06T04:20:46.402Z,80.89
2019-05-06T04:21:46.394Z,81.30
2019-05-06T04:22:46.396Z,81.27
2019-05-06T04:23:46.372Z,81.06
2019-05-06T04:24:46.683Z,80.96
2019-05-06T04:25:46.364Z,80.75
2019-05-06T04:26:46.641Z,80.85
2019-05-06T04:27:46.342Z,80.65
2019-05-06T04:28:46.311Z,80.75
2019-05-06T04:29:46.309Z,80.85
2019-05-06T04:30:46.338Z,81.06
2019-05-06T04:31:46.284Z,81.02
2019-05-06T04:32:46.271Z,80.82
2019-05-06T04:34:03.429Z,80.30
2019-05-06T04:34:47.249Z,80.16
2019-05-06T04:35:46.251Z,79.95
2019-05-06T04:36:46.320Z,79.85
2019-05-06T04:37:46.517Z,79.60
2019-05-06T04:38:46.216Z,79.40
2019-05-06T04:39:46.208Z,79.19
2019-05-06T04:40:46.200Z,79.19
2019-05-06T04:41:46.178Z,78.99
2019-05-06T04:42:46.209Z,78.85
2019-05-06T04:43:46.159Z,78.53
2019-05-06T04:44:46.644Z,78.33
2019-05-06T04:45:46.138Z,77.91
2019-05-06T04:46:46.125Z,77.91
2019-05-06T04:47:46.750Z,78.02
2019-05-06T04:48:46.918Z,77.81
2019-05-06T04:49:46.097Z,77.91
2019-05-06T04:50:46.089Z,78.12
2019-05-06T04:51:46.931Z,78.57
2019-05-06T04:52:46.066Z,78.88
2019-05-06T04:53:46.057Z,79.09
2019-05-06T04:54:46.752Z,79.19
2019-05-06T04:55:46.026Z,79.16
2019-05-06T04:56:46.055Z,78.95
2019-05-06T04:57:46.036Z,78.95
2019-05-06T04:58:46.417Z,79.05
2019-05-06T04:59:45.993Z,79.02
2019-05-06T05:00:46.005Z,78.29
2019-05-06T05:01:46.044Z,78.25
2019-05-06T05:02:46.424Z,78.05
2019-05-06T05:03:45.958Z,77.74
2019-05-06T05:04:45.976Z,77.50
2019-05-06T05:05:46.219Z,77.19
2019-05-06T05:06:46.201Z,76.98
2019-05-06T05:07:45.903Z,76.67
2019-05-06T05:08:46.637Z,76.46
2019-05-06T05:09:45.883Z,76.43
2019-05-06T05:10:45.894Z,76.43
2019-05-06T05:11:45.941Z,76.32
2019-05-06T05:12:46.183Z,76.12
2019-05-06T05:13:45.846Z,76.22
2019-05-06T05:14:45.832Z,76.12
2019-05-06T05:15:45.812Z,76.22
2019-05-06T05:16:45.817Z,76.53
2019-05-06T05:17:45.812Z,76.64
2019-05-06T05:18:45.910Z,76.53
2019-05-06T05:19:46.130Z,76.53
2019-05-06T05:20:46.856Z,76.73
2019-05-06T05:21:45.781Z,76.84
2019-05-06T05:22:45.742Z,76.73
2019-05-06T05:23:45.745Z,76.84
2019-05-06T05:24:45.771Z,76.70
2019-05-06T05:25:45.722Z,76.29
2019-05-06T05:26:48.209Z,75.87
2019-05-06T05:27:45.691Z,75.77
2019-05-06T05:28:45.683Z,75.74
2019-05-06T05:29:45.674Z,75.53
2019-05-06T05:30:45.710Z,74.91
2019-05-06T05:31:45.659Z,74.71
2019-05-06T05:32:45.642Z,75.15
2019-05-06T05:33:45.640Z,75.46
2019-05-06T05:34:45.619Z,75.87
2019-05-06T05:35:45.606Z,76.32
2019-05-06T05:36:45.629Z,76.60
2019-05-06T05:37:45.587Z,76.39
2019-05-06T05:38:45.577Z,76.60
2019-05-06T05:39:45.566Z,76.50
2019-05-06T05:40:45.558Z,76.39
2019-05-06T05:41:45.548Z,76.60
2019-05-06T05:42:45.568Z,76.29
2019-05-06T05:43:45.523Z,75.95
2019-05-06T05:44:45.516Z,75.63
2019-05-06T05:45:45.802Z,75.43
2019-05-06T05:46:45.528Z,74.91
2019-05-06T05:47:45.496Z,75.01
2019-05-06T05:48:45.517Z,75.43
2019-05-06T05:49:45.547Z,75.36
2019-05-06T05:50:45.455Z,75.53
2019-05-06T05:51:45.437Z,75.46
2019-05-06T05:52:45.446Z,75.67
2019-05-06T05:53:45.428Z,75.26
2019-05-06T05:54:45.438Z,75.26
2019-05-06T05:55:45.393Z,75.15
2019-05-06T05:56:45.481Z,74.74
2019-05-06T05:57:45.909Z,75.15
2019-05-06T05:58:45.375Z,75.36
2019-05-06T05:59:45.356Z,75.15
2019-05-06T06:00:45.385Z,75.26
2019-05-06T06:01:45.326Z,75.57
2019-05-06T06:02:45.401Z,75.98
2019-05-06T06:03:45.306Z,75.87
2019-05-06T06:04:54.803Z,75.46
2019-05-06T06:05:46.345Z,75.43
2019-05-06T06:06:45.275Z,75.22
2019-05-06T06:07:45.273Z,74.40
2019-05-06T06:08:45.264Z,74.71
2019-05-06T06:09:45.284Z,74.84
2019-05-06T06:10:45.235Z,75.15
2019-05-06T06:11:45.254Z,75.01
2019-05-06T06:12:45.447Z,74.71
2019-05-06T06:13:47.621Z,74.40
2019-05-06T06:14:47.310Z,74.29
2019-05-06T06:15:45.232Z,74.19
2019-05-06T06:16:46.350Z,74.63
2019-05-06T06:17:45.576Z,74.60
2019-05-06T06:18:46.577Z,74.60
2019-05-06T06:19:45.144Z,74.15
2019-05-06T06:20:45.882Z,73.64
2019-05-06T06:21:45.122Z,73.64
2019-05-06T06:22:45.104Z,73.64
2019-05-06T06:23:45.133Z,73.88
2019-05-06T06:24:45.096Z,73.88
2019-05-06T06:25:45.079Z,73.98
2019-05-06T06:26:45.070Z,74.71
2019-05-06T06:27:45.062Z,74.60
2019-05-06T06:28:45.752Z,74.57
2019-05-06T06:29:45.469Z,73.95
2019-05-06T06:30:45.036Z,73.54
2019-05-06T06:31:45.080Z,73.22
2019-05-06T06:32:45.131Z,73.12
2019-05-06T06:33:45.027Z,73.22
2019-05-06T06:34:44.981Z,72.92
2019-05-06T06:35:45.024Z,73.33
2019-05-06T06:36:45.480Z,73.43
2019-05-06T06:37:45.782Z,73.54
2019-05-06T06:38:44.940Z,73.43
2019-05-06T06:39:45.653Z,73.30
2019-05-06T06:40:45.221Z,72.99
2019-05-06T06:41:44.965Z,72.64
2019-05-06T06:42:45.256Z,72.33
2019-05-06T06:43:45.077Z,71.99
2019-05-06T06:44:45.041Z,71.51
2019-05-06T06:45:45.010Z,71.58
2019-05-06T06:46:45.121Z,71.06
2019-05-06T06:47:45.293Z,70.72
2019-05-06T06:48:45.221Z,70.31
2019-05-06T06:49:44.839Z,70.10
2019-05-06T06:50:44.810Z,69.90
2019-05-06T06:51:44.807Z,70.10
2019-05-06T06:52:44.830Z,70.10
2019-05-06T06:53:44.828Z,69.90
2019-05-06T06:54:44.798Z,69.79
2019-05-06T06:55:44.777Z,69.90
2019-05-06T06:56:44.751Z,70.21
2019-05-06T06:57:44.757Z,69.90
2019-05-06T06:58:44.897Z,70.00
2019-05-06T06:59:45.803Z,70.55
2019-05-06T07:00:46.445Z,70.42
2019-05-06T07:01:44.714Z,70.42
2019-05-06T07:02:44.687Z,68.77
2019-05-06T07:03:44.903Z,68.56
2019-05-06T07:04:44.810Z,68.35
2019-05-06T07:05:44.716Z,68.15
2019-05-06T07:06:44.676Z,68.35
2019-05-06T07:07:47.503Z,68.56
2019-05-06T07:08:44.910Z,68.77
2019-05-06T07:09:45.314Z,68.98
2019-05-06T07:10:44.668Z,68.66
2019-05-06T07:11:44.966Z,68.43
2019-05-06T07:12:44.595Z,68.02
2019-05-06T07:13:44.576Z,67.71
2019-05-06T07:14:44.556Z,67.57
2019-05-06T07:15:44.552Z,67.23
2019-05-06T07:16:44.568Z,66.93
2019-05-06T07:17:44.566Z,66.00
2019-05-06T07:18:44.523Z,66.72
2019-05-06T07:19:44.507Z,66.85
2019-05-06T07:20:44.507Z,67.16
2019-05-06T07:21:44.504Z,67.57
2019-05-06T07:22:44.474Z,67.47
2019-05-06T07:23:44.494Z,67.03
2019-05-06T07:24:44.452Z,66.41
2019-05-06T07:25:44.434Z,66.61
2019-05-06T07:26:44.443Z,66.28
2019-05-06T07:27:44.475Z,66.38
2019-05-06T07:28:44.415Z,66.38
2019-05-06T07:29:48.361Z,66.41
2019-05-06T07:30:45.294Z,66.61
2019-05-06T07:31:44.390Z,66.07
2019-05-06T07:32:45.180Z,65.66
2019-05-06T07:33:44.969Z,65.97
2019-05-06T07:34:44.735Z,65.86
2019-05-06T07:35:45.033Z,65.77
2019-05-06T07:36:44.936Z,65.86
2019-05-06T07:37:45.750Z,65.66
2019-05-06T07:38:45.012Z,65.77
2019-05-06T07:39:44.953Z,65.86
2019-05-06T07:40:44.307Z,66.07
2019-05-06T07:41:46.228Z,65.66
2019-05-06T07:42:44.252Z,65.83
2019-05-06T07:43:44.253Z,65.73
2019-05-06T07:44:44.233Z,65.29
2019-05-06T07:45:44.231Z,65.06
2019-05-06T07:46:44.231Z,64.61
2019-05-06T07:47:45.751Z,63.69
2019-05-06T07:48:44.191Z,63.56
2019-05-06T07:49:45.425Z,63.15
2019-05-06T07:50:44.976Z,63.39
2019-05-06T07:51:44.530Z,63.93
2019-05-06T07:52:44.154Z,64.67
2019-05-06T07:53:44.212Z,64.57
2019-05-06T07:54:45.657Z,64.47
2019-05-06T07:55:44.238Z,64.03
2019-05-06T07:56:44.110Z,63.59
2019-05-06T07:57:44.760Z,63.25
2019-05-06T07:58:44.982Z,62.63
2019-05-06T07:59:44.150Z,61.99
2019-05-06T08:00:44.140Z,61.48
2019-05-06T08:01:44.377Z,60.94
2019-05-06T08:02:44.049Z,61.18
2019-05-06T08:03:44.029Z,61.25
2019-05-06T08:04:44.020Z,60.15
2019-05-06T08:05:55.250Z,60.89
2019-05-06T08:06:45.078Z,60.69
2019-05-06T08:07:44.778Z,60.82
2019-05-06T08:08:43.979Z,60.89
2019-05-06T08:09:44.204Z,61.10
2019-05-06T08:10:44.147Z,61.10
2019-05-06T08:11:44.759Z,60.76
2019-05-06T08:12:44.067Z,60.56
2019-05-06T08:13:43.936Z,60.25
2019-05-06T08:14:43.920Z,60.05
2019-05-06T08:15:43.908Z,59.81
2019-05-06T08:16:44.429Z,59.53
2019-05-06T08:17:43.947Z,60.35
2019-05-06T08:18:43.897Z,60.66
2019-05-06T08:19:44.217Z,60.58
2019-05-06T08:20:44.018Z,60.79
2019-05-06T08:21:44.268Z,60.69
2019-05-06T08:22:44.232Z,60.69
2019-05-06T08:23:44.337Z,60.17
2019-05-06T08:24:45.700Z,60.82
2019-05-06T08:25:43.928Z,60.79
2019-05-06T08:26:43.787Z,60.58
2019-05-06T08:27:43.777Z,60.28
2019-05-06T08:28:44.649Z,60.58
2019-05-06T08:29:43.798Z,60.38
2019-05-06T08:30:43.784Z,60.58
2019-05-06T08:31:43.736Z,60.28
2019-05-06T08:32:44.835Z,59.97
2019-05-06T08:33:43.726Z,59.97
2019-05-06T08:34:43.717Z,60.28
2019-05-06T08:35:43.745Z,60.07
2019-05-06T08:36:43.684Z,59.64
2019-05-06T08:37:43.678Z,59.33
2019-05-06T08:38:43.669Z,59.53
2019-05-06T08:39:45.967Z,59.64
2019-05-06T08:40:43.635Z,59.23
2019-05-06T08:41:43.684Z,59.30
2019-05-06T08:42:43.633Z,59.41
2019-05-06T08:43:43.655Z,59.07
2019-05-06T08:44:43.616Z,57.84
2019-05-06T08:45:43.628Z,57.94
2019-05-06T08:46:43.790Z,58.25
2019-05-06T08:47:43.615Z,57.92
2019-05-06T08:48:43.562Z,57.10
2019-05-06T08:49:43.555Z,56.23
2019-05-06T08:50:43.587Z,55.62
2019-05-06T08:51:43.543Z,56.35
2019-05-06T08:52:43.536Z,57.33
2019-05-06T08:53:44.053Z,57.71
2019-05-06T08:54:43.597Z,58.15
2019-05-06T08:55:43.814Z,57.48
2019-05-06T08:56:43.512Z,56.30
2019-05-06T08:57:43.484Z,54.41
2019-05-06T08:58:43.495Z,54.85
2019-05-06T08:59:44.502Z,54.64
2019-05-06T09:00:43.587Z,56.30
2019-05-06T09:01:44.221Z,54.28
2019-05-06T09:02:46.119Z,54.64
2019-05-06T09:03:44.454Z,54.39
2019-05-06T09:04:43.704Z,54.33
2019-05-06T09:05:43.423Z,52.93
2019-05-06T09:06:43.452Z,50.44
2019-05-06T09:07:44.284Z,49.48
2019-05-06T09:08:43.345Z,51.25
2019-05-06T09:09:43.359Z,51.91
2019-05-06T09:10:43.418Z,54.26
2019-05-06T09:11:43.442Z,56.48
2019-05-06T09:12:43.310Z,56.74
2019-05-06T09:13:43.483Z,57.56
2019-05-06T09:14:43.304Z,57.76
2019-05-06T09:15:43.824Z,58.07
2019-05-06T09:16:43.968Z,57.97
2019-05-06T09:17:43.293Z,57.74
2019-05-06T09:18:43.253Z,56.97
2019-05-06T09:19:43.815Z,55.82
2019-05-06T09:20:43.345Z,54.54
2019-05-06T09:21:46.072Z,53.49
2019-05-06T09:22:43.206Z,52.72
2019-05-06T09:23:43.220Z,52.67
2019-05-06T09:24:43.201Z,51.89
2019-05-06T09:25:43.206Z,49.60
2019-05-06T09:26:44.626Z,51.73
2019-05-06T09:27:43.142Z,53.54
2019-05-06T09:28:43.153Z,53.16
2019-05-06T09:29:44.041Z,53.01
2019-05-06T09:30:43.860Z,52.11
2019-05-06T09:31:43.841Z,52.22
2019-05-06T09:32:43.832Z,49.04
2019-05-06T09:33:43.100Z,45.72
2019-05-06T09:34:43.298Z,44.36
2019-05-06T09:35:44.870Z,47.13
2019-05-06T09:36:51.467Z,48.98
2019-05-06T09:37:45.211Z,49.92
2019-05-06T09:38:43.284Z,48.85
2019-05-06T09:39:43.374Z,47.28
2019-05-06T09:40:43.690Z,47.30
2019-05-06T09:41:46.568Z,47.50
2019-05-06T09:42:44.842Z,49.69
2019-05-06T09:43:44.388Z,51.25
2019-05-06T09:44:43.001Z,51.57
2019-05-06T09:45:42.986Z,50.76
2019-05-06T09:46:43.663Z,50.99
2019-05-06T09:47:43.041Z,50.91
2019-05-06T09:48:43.331Z,51.75
2019-05-06T09:49:42.932Z,52.16
2019-05-06T09:50:45.981Z,52.47
2019-05-06T09:51:43.183Z,52.80
2019-05-06T09:52:42.954Z,53.31
2019-05-06T09:53:43.657Z,53.03
2019-05-06T09:54:42.928Z,53.54
2019-05-06T09:55:43.814Z,53.54
2019-05-06T09:56:42.892Z,53.85
2019-05-06T09:57:42.829Z,53.62
2019-05-06T09:58:43.107Z,50.44
2019-05-06T09:59:43.836Z,45.64
2019-05-06T10:00:43.120Z,44.71
2019-05-06T10:01:43.705Z,43.96
2019-05-06T10:02:43.000Z,43.06
2019-05-06T10:03:42.928Z,45.91
2019-05-06T10:04:42.982Z,47.28
2019-05-06T10:05:44.283Z,47.00
2019-05-06T10:06:55.722Z,46.30
2019-05-06T10:07:44.399Z,45.59
2019-05-06T10:08:43.388Z,46.87
2019-05-06T10:09:43.583Z,47.75
2019-05-06T10:10:56.233Z,46.71
2019-05-06T10:11:44.050Z,48.06
2019-05-06T10:12:42.958Z,48.59
2019-05-06T10:13:47.964Z,49.13
2019-05-06T10:14:43.589Z,47.03
2019-05-06T10:15:43.889Z,43.24
2019-05-06T10:16:43.267Z,43.53
2019-05-06T10:17:43.301Z,46.28
2019-05-06T10:18:42.919Z,47.75
2019-05-06T10:19:43.197Z,48.39
2019-05-06T10:20:43.303Z,48.49
2019-05-06T10:21:43.270Z,45.06
2019-05-06T10:22:43.640Z,45.59
2019-05-06T10:23:44.087Z,46.24
2019-05-06T10:24:43.680Z,47.08
2019-05-06T10:25:44.094Z,47.73
2019-05-06T10:26:43.222Z,48.80
2019-05-06T10:27:43.137Z,49.25
2019-05-06T10:28:42.499Z,50.40
2019-05-06T10:29:43.245Z,50.09
2019-05-06T10:30:42.882Z,49.79
2019-05-06T10:31:43.193Z,50.42
2019-05-06T10:32:42.727Z,50.52
2019-05-06T10:33:42.695Z,49.89
2019-05-06T10:34:43.533Z,50.30
2019-05-06T10:35:42.921Z,50.50
2019-05-06T10:36:42.827Z,49.96
2019-05-06T10:37:42.477Z,49.99
2019-05-06T10:38:44.210Z,50.09
2019-05-06T10:39:43.785Z,47.83
2019-05-06T10:40:57.285Z,47.86
2019-05-06T10:41:43.586Z,48.90
2019-05-06T10:42:43.160Z,49.63
2019-05-06T10:43:43.112Z,49.74
2019-05-06T10:44:43.058Z,49.74
2019-05-06T10:45:42.697Z,50.17
2019-05-06T10:46:43.038Z,50.68
2019-05-06T10:47:42.457Z,50.33
2019-05-06T10:48:43.105Z,47.26
2019-05-06T10:49:44.710Z,46.14
2019-05-06T10:50:42.273Z,47.00
2019-05-06T10:51:42.728Z,46.14
2019-05-06T10:52:42.270Z,46.15
2019-05-06T10:53:42.980Z,46.38
2019-05-06T10:54:42.276Z,46.43
2019-05-06T10:55:42.758Z,47.06
2019-05-06T10:56:50.701Z,47.80
2019-05-06T10:57:43.224Z,48.23
2019-05-06T10:58:44.019Z,48.76
2019-05-06T10:59:43.001Z,49.58
2019-05-06T11:00:43.412Z,49.99
2019-05-06T11:01:43.032Z,49.68
2019-05-06T11:02:43.047Z,49.35
2019-05-06T11:03:42.516Z,49.22
2019-05-06T11:04:42.605Z,45.26
2019-05-06T11:05:43.527Z,41.56
2019-05-06T11:06:43.071Z,40.45
2019-05-06T11:07:43.081Z,42.80
2019-05-06T11:08:42.623Z,43.43
2019-05-06T11:09:42.679Z,44.16
2019-05-06T11:10:45.355Z,44.71
2019-05-06T11:11:42.756Z,42.86
2019-05-06T11:12:43.087Z,39.98
2019-05-06T11:13:42.789Z,36.94
2019-05-06T11:14:43.043Z,35.38
2019-05-06T11:15:45.163Z,34.16
2019-05-06T11:16:44.082Z,35.35
2019-05-06T11:17:43.739Z,36.93
2019-05-06T11:18:44.968Z,39.18
2019-05-06T11:19:42.860Z,41.07
2019-05-06T11:20:44.470Z,41.24
2019-05-06T11:21:45.154Z,38.39
2019-05-06T11:22:43.610Z,35.23
2019-05-06T11:23:44.006Z,36.44
2019-05-06T11:24:44.508Z,38.84
2019-05-06T11:25:43.225Z,39.93
2019-05-06T11:26:43.010Z,40.86
2019-05-06T11:27:45.155Z,41.80
2019-05-06T11:28:42.575Z,42.13
2019-05-06T11:29:43.557Z,42.37
2019-05-06T11:30:42.727Z,43.20
2019-05-06T11:31:43.295Z,43.53
2019-05-06T11:32:44.451Z,44.04
2019-05-06T11:33:43.586Z,44.26
2019-05-06T11:34:43.568Z,44.57
2019-05-06T11:35:43.160Z,44.79
2019-05-06T11:36:42.625Z,45.53
2019-05-06T11:37:49.835Z,46.04
2019-05-06T11:38:43.253Z,45.84
2019-05-06T11:39:43.080Z,45.76
2019-05-06T11:40:42.406Z,45.65
2019-05-06T11:41:59.596Z,45.76
2019-05-06T11:42:43.680Z,46.06
2019-05-06T11:43:42.844Z,45.94
2019-05-06T11:44:44.009Z,45.10
2019-05-06T11:45:42.770Z,45.18
2019-05-06T11:46:42.970Z,43.67
2019-05-06T11:47:42.558Z,41.11
2019-05-06T11:48:43.159Z,39.15
2019-05-06T11:49:44.188Z,39.78
2019-05-06T11:50:42.760Z,41.07
2019-05-06T11:51:43.462Z,40.95
2019-05-06T11:52:43.492Z,40.91
2019-05-06T11:53:41.720Z,38.45
2019-05-06T11:54:42.246Z,37.23
2019-05-06T11:55:41.615Z,35.52
2019-05-06T11:56:50.753Z,36.07
2019-05-06T11:57:44.660Z,36.81
2019-05-06T11:58:42.866Z,38.50
2019-05-06T11:59:43.323Z,38.70
2019-05-06T12:00:44.441Z,38.42
2019-05-06T12:01:43.468Z,40.01
2019-05-06T12:02:47.799Z,41.46
2019-05-06T12:03:42.778Z,42.39
2019-05-06T12:04:41.953Z,42.49
2019-05-06T12:05:41.877Z,41.72
2019-05-06T12:06:42.377Z,37.60
2019-05-06T12:07:44.869Z,34.66
2019-05-06T12:09:06.436Z,33.44
2019-05-06T12:09:41.455Z,32.58
2019-05-06T12:10:42.446Z,32.28
2019-05-06T12:11:43.129Z,32.51
2019-05-06T12:12:42.541Z,32.58
2019-05-06T12:13:42.667Z,32.06
2019-05-06T12:14:42.899Z,34.28
2019-05-06T12:15:49.559Z,36.30
2019-05-06T12:16:42.768Z,38.62
2019-05-06T12:17:42.615Z,40.30
2019-05-06T12:18:42.214Z,40.62
2019-05-06T12:19:43.287Z,41.03
2019-05-06T12:20:44.512Z,41.15
2019-05-06T12:21:43.124Z,41.68
2019-05-06T12:22:42.586Z,41.90
2019-05-06T12:23:44.803Z,42.31
2019-05-06T12:24:43.036Z,42.94
2019-05-06T12:25:44.818Z,43.35
2019-05-06T12:26:42.988Z,42.53
2019-05-06T12:27:43.106Z,42.35
2019-05-06T12:28:43.473Z,43.08
2019-05-06T12:29:42.800Z,43.81
2019-05-06T12:30:42.754Z,44.32
2019-05-06T12:31:42.246Z,44.32
2019-05-06T12:32:43.151Z,44.14
2019-05-06T12:33:42.702Z,44.24
2019-05-06T12:34:42.984Z,44.75
2019-05-06T12:35:42.805Z,45.47
2019-05-06T12:36:42.746Z,45.67
2019-05-06T12:37:41.120Z,45.77
2019-05-06T12:38:43.151Z,45.69
2019-05-06T12:39:43.060Z,46.00
2019-05-06T12:40:42.872Z,46.71
2019-05-06T12:41:43.135Z,46.33
2019-05-06T12:42:43.221Z,46.43
2019-05-06T12:43:43.038Z,46.53
2019-05-06T12:44:41.751Z,46.33
2019-05-06T12:45:42.912Z,45.81
2019-05-06T12:46:43.050Z,45.51
2019-05-06T12:47:42.686Z,45.31
2019-05-06T12:48:43.817Z,45.10
2019-05-06T12:49:42.616Z,44.79
2019-05-06T12:50:43.063Z,44.90
2019-05-06T12:51:43.219Z,45.20
2019-05-06T12:52:44.184Z,45.18
2019-05-06T12:53:42.798Z,45.10